createdAt,value
2018-04-15T00:02:27.791Z,63.83
2018-04-15T00:04:57.869Z,63.80
2018-04-15T00:07:27.302Z,63.63
2018-04-15T00:09:56.815Z,63.44
2018-04-15T00:12:26.278Z,63.63
2018-04-15T00:14:55.622Z,63.59
2018-04-15T00:17:24.943Z,63.48
2018-04-15T00:19:55.071Z,63.25
2018-04-15T00:22:25.153Z,63.13
2018-04-15T00:24:54.489Z,64.54
2018-04-15T00:27:24.590Z,64.75
2018-04-15T00:29:53.872Z,64.38
2018-04-15T00:32:23.841Z,63.29
2018-04-15T00:34:53.159Z,62.90
2018-04-15T00:37:22.470Z,62.92
2018-04-15T00:39:51.830Z,64.38
2018-04-15T00:42:21.157Z,64.19
2018-04-15T00:44:50.544Z,64.34
2018-04-15T00:47:20.645Z,64.56
2018-04-15T00:49:50.290Z,64.92
2018-04-15T00:52:19.661Z,65.10
2018-04-15T00:54:49.002Z,65.50
2018-04-15T00:57:18.326Z,65.64
2018-04-15T00:59:47.668Z,65.61
2018-04-15T01:02:17.542Z,65.67
2018-04-15T01:04:47.074Z,65.58
2018-04-15T01:07:16.404Z,65.64
2018-04-15T01:09:46.512Z,66.15
2018-04-15T01:12:15.838Z,66.29
2018-04-15T01:14:45.939Z,66.36
2018-04-15T01:17:15.259Z,66.59
2018-04-15T01:19:45.361Z,66.58
2018-04-15T01:22:14.718Z,67.04
2018-04-15T01:24:44.026Z,67.59
2018-04-15T01:27:13.911Z,67.56
2018-04-15T01:29:44.010Z,67.80
2018-04-15T01:32:13.359Z,67.78
2018-04-15T01:34:42.686Z,67.73
2018-04-15T01:37:12.819Z,67.88
2018-04-15T01:39:42.151Z,67.93
2018-04-15T01:42:12.238Z,68.10
2018-04-15T01:44:41.575Z,68.01
2018-04-15T01:47:11.671Z,68.36
2018-04-15T01:49:40.993Z,68.58
2018-04-15T01:52:12.319Z,68.55
2018-04-15T01:54:41.635Z,69.14
2018-04-15T01:57:10.993Z,69.15
2018-04-15T01:59:40.335Z,69.20
2018-04-15T02:02:09.676Z,69.14
2018-04-15T02:04:39.008Z,69.23
2018-04-15T02:07:08.342Z,69.64
2018-04-15T02:09:37.657Z,69.80
2018-04-15T02:12:07.000Z,70.04
2018-04-15T02:14:36.330Z,70.46
2018-04-15T02:17:05.646Z,70.49
2018-04-15T02:19:34.989Z,71.10
2018-04-15T02:22:05.084Z,71.03
2018-04-15T02:24:35.194Z,71.19
2018-04-15T02:27:04.519Z,71.05
2018-04-15T02:29:34.625Z,71.91
2018-04-15T02:32:03.953Z,71.86
2018-04-15T02:34:34.035Z,72.00
2018-04-15T02:37:03.385Z,72.35
2018-04-15T02:39:33.459Z,72.50
2018-04-15T02:42:02.818Z,72.16
2018-04-15T02:44:33.600Z,72.48
2018-04-15T02:47:02.946Z,72.59
2018-04-15T02:49:33.031Z,72.80
2018-04-15T02:52:02.378Z,73.21
2018-04-15T02:54:31.702Z,73.52
2018-04-15T02:57:01.029Z,73.56
2018-04-15T02:59:30.364Z,73.69
2018-04-15T03:02:00.467Z,73.73
2018-04-15T03:04:29.800Z,74.05
2018-04-15T03:06:59.918Z,73.96
2018-04-15T03:09:30.007Z,74.37
2018-04-15T03:11:59.350Z,74.39
2018-04-15T03:14:28.667Z,74.60
2018-04-15T03:16:57.983Z,74.49
2018-04-15T03:19:27.325Z,74.54
2018-04-15T03:21:57.361Z,74.60
2018-04-15T03:24:27.484Z,74.79
2018-04-15T03:26:57.571Z,74.80
2018-04-15T03:29:26.896Z,74.81
2018-04-15T03:31:57.007Z,74.80
2018-04-15T03:34:26.331Z,75.06
2018-04-15T03:36:56.466Z,74.88
2018-04-15T03:39:25.778Z,75.13
2018-04-15T03:41:55.896Z,75.18
2018-04-15T03:44:25.214Z,75.42
2018-04-15T03:46:54.544Z,75.31
2018-04-15T03:49:27.490Z,75.60
2018-04-15T03:51:56.808Z,75.59
2018-04-15T03:54:26.115Z,75.45
2018-04-15T03:56:55.478Z,75.31
2018-04-15T03:59:25.579Z,75.14
2018-04-15T04:01:54.920Z,75.07
2018-04-15T04:04:24.253Z,75.01
2018-04-15T04:06:53.575Z,75.03
2018-04-15T04:09:22.930Z,75.04
2018-04-15T04:11:52.255Z,74.92
2018-04-15T04:14:21.587Z,74.66
2018-04-15T04:16:50.912Z,74.77
2018-04-15T04:19:38.548Z,74.79
2018-04-15T04:22:26.524Z,74.79
2018-04-15T04:25:11.575Z,75.27
2018-04-15T04:27:41.647Z,75.39
2018-04-15T04:30:10.988Z,75.43
2018-04-15T04:32:40.396Z,75.81
2018-04-15T04:35:10.479Z,75.92
2018-04-15T04:37:40.591Z,75.62
2018-04-15T04:40:09.899Z,75.87
2018-04-15T04:42:39.219Z,76.09
2018-04-15T04:45:08.568Z,76.07
2018-04-15T04:47:37.903Z,76.39
2018-04-15T04:50:07.286Z,76.73
2018-04-15T04:52:37.323Z,76.67
2018-04-15T04:55:06.994Z,76.42
2018-04-15T04:57:36.313Z,76.35
2018-04-15T05:00:05.834Z,76.40
2018-04-15T05:02:35.181Z,76.45
2018-04-15T05:05:05.257Z,74.22
2018-04-15T05:07:34.753Z,76.14
2018-04-15T05:10:04.085Z,76.42
2018-04-15T05:12:33.398Z,76.29
2018-04-15T05:15:02.736Z,76.24
2018-04-15T05:17:32.101Z,76.43
2018-04-15T05:20:01.427Z,76.55
2018-04-15T05:22:31.557Z,76.61
2018-04-15T05:25:01.667Z,76.43
2018-04-15T05:27:32.391Z,76.59
2018-04-15T05:30:01.739Z,76.36
2018-04-15T05:35:31.849Z,76.82
2018-04-15T05:38:01.952Z,76.94
2018-04-15T05:40:31.281Z,77.40
2018-04-15T05:43:01.374Z,76.69
2018-04-15T05:45:30.740Z,77.55
2018-04-15T05:48:00.068Z,77.37
2018-04-15T05:50:29.384Z,77.55
2018-04-15T05:53:00.048Z,78.12
2018-04-15T05:55:30.153Z,78.15
2018-04-15T05:58:00.327Z,78.53
2018-04-15T06:00:30.406Z,78.62
2018-04-15T06:03:00.532Z,79.01
2018-04-15T06:05:31.234Z,78.63
2018-04-15T06:08:00.571Z,78.35
2018-04-15T06:10:30.701Z,77.84
2018-04-15T06:13:00.015Z,77.59
2018-04-15T06:15:29.329Z,77.55
2018-04-15T06:17:58.655Z,77.61
2018-04-15T06:20:28.664Z,77.35
2018-04-15T06:22:57.974Z,77.01
2018-04-15T06:25:27.279Z,76.73
2018-04-15T06:27:56.624Z,76.57
2018-04-15T06:30:26.690Z,76.00
2018-04-15T06:32:56.015Z,75.59
2018-04-15T06:35:25.363Z,75.52
2018-04-15T06:37:54.658Z,75.08
2018-04-15T06:40:23.967Z,75.91
2018-04-15T06:42:53.291Z,76.00
2018-04-15T06:45:22.615Z,76.20
2018-04-15T06:47:53.665Z,76.25
2018-04-15T06:50:23.031Z,76.71
2018-04-15T06:52:52.905Z,76.78
2018-04-15T06:55:22.236Z,76.88
2018-04-15T06:57:52.352Z,76.70
2018-04-15T07:00:21.670Z,76.75
2018-04-15T07:02:50.976Z,76.48
2018-04-15T07:05:21.270Z,76.12
2018-04-15T07:07:51.480Z,76.29
2018-04-15T07:10:20.790Z,75.73
2018-04-15T07:12:57.478Z,75.57
2018-04-15T07:15:26.818Z,75.33
2018-04-15T07:17:56.146Z,74.34
2018-04-15T07:20:25.474Z,73.62
2018-04-15T07:22:55.726Z,74.05
2018-04-15T07:25:32.300Z,73.20
2018-04-15T07:28:01.620Z,72.53
2018-04-15T07:30:30.937Z,72.37
2018-04-15T07:33:00.242Z,71.78
2018-04-15T07:35:29.575Z,71.12
2018-04-15T07:37:58.889Z,70.05
2018-04-15T07:40:28.984Z,70.03
2018-04-15T07:42:58.297Z,69.19
2018-04-15T07:45:27.623Z,68.42
2018-04-15T07:47:56.927Z,67.80
2018-04-15T07:50:26.266Z,67.81
2018-04-15T07:52:55.595Z,67.83
2018-04-15T07:55:24.910Z,67.64
2018-04-15T07:57:54.235Z,66.52
2018-04-15T08:00:24.309Z,65.69
2018-04-15T08:02:53.650Z,66.73
2018-04-15T08:05:23.047Z,65.80
2018-04-15T08:07:52.350Z,65.20
2018-04-15T08:10:22.443Z,63.87
2018-04-15T08:12:51.766Z,61.70
2018-04-15T08:15:21.107Z,61.44
2018-04-15T08:17:50.403Z,59.96
2018-04-15T08:20:19.721Z,60.16
2018-04-15T08:22:49.068Z,60.41
2018-04-15T08:25:21.903Z,59.79
2018-04-15T08:27:51.245Z,60.65
2018-04-15T08:30:20.567Z,59.86
2018-04-15T08:32:49.906Z,60.35
2018-04-15T08:35:19.207Z,58.02
2018-04-15T08:37:48.554Z,56.72
2018-04-15T08:40:17.879Z,56.63
2018-04-15T08:42:47.196Z,57.43
2018-04-15T08:45:17.279Z,54.62
2018-04-15T08:47:46.610Z,54.42
2018-04-15T08:50:15.918Z,51.73
2018-04-15T08:52:46.011Z,53.47
2018-04-15T08:55:15.330Z,52.24
2018-04-15T08:57:44.634Z,52.32
2018-04-15T09:00:14.736Z,54.74
2018-04-15T09:02:44.085Z,54.52
2018-04-15T09:05:13.394Z,54.35
2018-04-15T09:07:42.734Z,50.96
2018-04-15T09:13:26.521Z,48.04
2018-04-15T09:15:55.851Z,47.51
2018-04-15T09:18:25.985Z,49.12
2018-04-15T09:20:55.305Z,49.05
2018-04-15T09:23:24.752Z,46.86
2018-04-15T09:25:54.887Z,46.69
2018-04-15T09:28:24.985Z,44.63
2018-04-15T09:30:59.934Z,44.55
2018-04-15T09:33:29.255Z,43.19
2018-04-15T09:35:59.368Z,43.96
2018-04-15T09:38:29.461Z,44.49
2018-04-15T09:40:58.819Z,43.59
2018-04-15T09:43:28.115Z,42.45
2018-04-15T09:45:57.441Z,41.60
2018-04-15T09:48:26.760Z,42.90
2018-04-15T09:50:56.082Z,41.72
2018-04-15T09:53:26.280Z,41.13
2018-04-15T09:55:56.452Z,39.29
2018-04-15T09:58:26.657Z,39.16
2018-04-15T10:01:02.560Z,40.07
2018-04-15T10:03:31.898Z,40.73
2018-04-15T10:06:01.234Z,41.37
2018-04-15T10:08:31.339Z,40.38
2018-04-15T10:11:00.662Z,40.17
2018-04-15T10:13:30.721Z,39.46
2018-04-15T10:16:00.076Z,39.90
2018-04-15T10:18:30.188Z,39.42
2018-04-15T10:20:59.507Z,39.86
2018-04-15T10:23:29.592Z,40.03
2018-04-15T10:25:58.931Z,41.62
2018-04-15T10:28:28.999Z,40.78
2018-04-15T10:30:59.758Z,38.88
2018-04-15T10:33:29.067Z,39.39
2018-04-15T10:35:59.963Z,36.70
2018-04-15T10:38:30.465Z,35.17
2018-04-15T10:41:19.328Z,35.38
2018-04-15T10:43:52.800Z,34.77
2018-04-15T10:46:22.158Z,36.40
2018-04-15T10:48:51.499Z,36.69
2018-04-15T10:51:20.830Z,37.61
2018-04-15T10:53:50.951Z,38.80
2018-04-15T10:56:21.082Z,38.99
2018-04-15T10:58:51.166Z,37.97
2018-04-15T11:01:20.490Z,38.36
2018-04-15T11:03:50.029Z,38.05
2018-04-15T11:06:19.404Z,35.88
2018-04-15T11:08:49.497Z,36.86
2018-04-15T11:11:18.839Z,35.41
2018-04-15T11:13:48.908Z,34.95
2018-04-15T11:16:18.256Z,36.47
2018-04-15T11:18:48.393Z,35.38
2018-04-15T11:21:17.741Z,34.30
2018-04-15T11:23:47.078Z,33.57
2018-04-15T11:26:17.191Z,33.24
2018-04-15T11:28:46.515Z,34.29
2018-04-15T11:31:17.244Z,34.20
2018-04-15T11:33:46.616Z,34.27
2018-04-15T11:36:15.963Z,33.30
2018-04-15T11:38:46.010Z,35.03
2018-04-15T11:41:15.330Z,35.65
2018-04-15T11:43:44.655Z,34.78
2018-04-15T11:46:14.927Z,36.16
2018-04-15T11:48:44.381Z,36.94
2018-04-15T11:51:13.742Z,37.50
2018-04-15T11:53:43.078Z,38.63
2018-04-15T11:56:13.097Z,37.89
2018-04-15T11:58:43.263Z,37.50
2018-04-15T12:01:12.590Z,36.65
2018-04-15T12:03:41.910Z,34.76
2018-04-15T12:06:11.270Z,35.64
2018-04-15T12:08:40.620Z,35.18
2018-04-15T12:11:09.974Z,35.32
2018-04-15T12:13:39.290Z,35.53
2018-04-15T12:16:08.620Z,35.80
2018-04-15T12:18:38.762Z,37.21
2018-04-15T12:21:08.112Z,36.75
2018-04-15T12:23:37.448Z,36.43
2018-04-15T12:26:06.759Z,36.46
2018-04-15T12:28:36.115Z,38.18
2018-04-15T12:31:05.432Z,38.61
2018-04-15T12:33:34.743Z,38.62
2018-04-15T12:36:04.067Z,36.53
2018-04-15T12:38:33.383Z,34.95
2018-04-15T12:41:02.816Z,34.32
2018-04-15T12:43:32.084Z,32.94
2018-04-15T12:46:01.387Z,30.47
2018-04-15T12:48:33.382Z,30.86
2018-04-15T12:51:03.876Z,31.27
2018-04-15T12:53:33.276Z,29.62
2018-04-15T12:56:03.389Z,30.85
2018-04-15T12:58:32.718Z,30.80
2018-04-15T13:01:02.046Z,30.59
2018-04-15T13:03:32.112Z,30.38
2018-04-15T13:06:01.498Z,31.58
2018-04-15T13:08:31.584Z,32.43
2018-04-15T13:11:01.744Z,32.71
2018-04-15T13:13:31.066Z,34.15
2018-04-15T13:16:00.409Z,33.17
2018-04-15T13:18:29.809Z,32.49
2018-04-15T13:20:59.108Z,32.15
2018-04-15T13:23:28.423Z,32.84
2018-04-15T13:25:58.522Z,31.11
2018-04-15T13:28:27.822Z,31.83
2018-04-15T13:30:58.899Z,32.11
2018-04-15T13:33:28.970Z,31.71
2018-04-15T13:35:58.310Z,30.95
2018-04-15T13:38:28.374Z,29.79
2018-04-15T13:40:57.690Z,29.83
2018-04-15T13:43:27.038Z,31.19
2018-04-15T13:45:56.343Z,31.77
2018-04-15T13:48:26.435Z,32.26
2018-04-15T13:50:55.762Z,32.67
2018-04-15T13:53:25.078Z,32.26
2018-04-15T13:55:55.141Z,32.46
2018-04-15T13:58:24.466Z,34.29
2018-04-15T14:00:53.791Z,34.83
2018-04-15T14:03:23.172Z,34.62
2018-04-15T14:05:52.501Z,35.12
2018-04-15T14:08:22.597Z,35.14
2018-04-15T14:10:52.576Z,34.43
2018-04-15T14:13:21.893Z,33.21
2018-04-15T14:15:51.245Z,32.92
2018-04-15T14:18:20.626Z,33.16
2018-04-15T14:20:49.907Z,34.45
2018-04-15T14:23:19.239Z,34.20
2018-04-15T14:25:48.555Z,35.06
2018-04-15T14:28:18.649Z,34.96
2018-04-15T14:30:47.979Z,33.94
2018-04-15T14:33:18.072Z,34.42
2018-04-15T14:35:47.382Z,34.74
2018-04-15T14:38:17.474Z,35.32
2018-04-15T14:40:46.792Z,35.75
2018-04-15T14:43:16.286Z,36.40
2018-04-15T14:45:45.599Z,36.66
2018-04-15T14:48:14.950Z,36.42
2018-04-15T14:50:45.983Z,36.08
2018-04-15T14:53:16.060Z,36.23
2018-04-15T14:55:45.552Z,36.33
2018-04-15T14:58:14.895Z,37.29
2018-04-15T15:00:44.472Z,37.21
2018-04-15T15:03:13.778Z,37.61
2018-04-15T15:05:43.100Z,38.22
2018-04-15T15:08:12.399Z,38.40
2018-04-15T15:10:41.702Z,38.04
2018-04-15T15:13:11.059Z,38.29
2018-04-15T15:15:41.357Z,38.48
2018-04-15T15:18:11.462Z,38.40
2018-04-15T15:20:41.338Z,39.22
2018-04-15T15:23:10.665Z,39.02
2018-04-15T15:25:39.987Z,38.70
2018-04-15T15:28:09.887Z,38.78
2018-04-15T15:30:39.135Z,38.83
2018-04-15T15:33:08.417Z,38.62
2018-04-15T15:35:38.756Z,38.27
2018-04-15T15:38:08.083Z,38.37
2018-04-15T15:40:37.389Z,38.54
2018-04-15T15:43:06.699Z,38.22
2018-04-15T15:45:36.023Z,38.50
2018-04-15T15:48:05.990Z,38.35
2018-04-15T15:50:41.287Z,38.27
2018-04-15T15:53:15.781Z,38.01
2018-04-15T15:55:47.452Z,37.17
2018-04-15T15:58:16.766Z,37.24
2018-04-15T16:00:46.781Z,36.94
2018-04-15T16:03:16.096Z,37.51
2018-04-15T16:05:46.074Z,37.57
2018-04-15T16:08:21.461Z,37.44
2018-04-15T16:10:50.789Z,37.39
2018-04-15T16:13:21.301Z,38.45
2018-04-15T16:15:50.640Z,37.62
2018-04-15T16:18:19.974Z,36.15
2018-04-15T16:20:49.995Z,36.50
2018-04-15T16:23:19.346Z,36.96
2018-04-15T16:25:49.442Z,37.51
2018-04-15T16:28:18.758Z,37.78
2018-04-15T16:30:50.416Z,37.87
2018-04-15T16:33:26.988Z,38.20
2018-04-15T16:35:57.070Z,38.49
2018-04-15T16:38:26.387Z,39.05
2018-04-15T16:40:55.694Z,39.22
2018-04-15T16:43:25.016Z,39.18
2018-04-15T16:45:55.105Z,38.73
2018-04-15T16:48:24.427Z,38.29
2018-04-15T16:50:53.741Z,38.50
2018-04-15T16:53:23.860Z,38.66
2018-04-15T16:55:53.167Z,38.76
2018-04-15T16:58:24.182Z,38.70
2018-04-15T17:00:53.540Z,38.88
2018-04-15T17:03:22.839Z,39.20
2018-04-15T17:05:52.151Z,39.36
2018-04-15T17:08:21.492Z,39.44
2018-04-15T17:10:50.805Z,39.84
2018-04-15T17:13:20.404Z,40.18
2018-04-15T17:15:50.780Z,40.67
2018-04-15T17:18:20.134Z,40.20
2018-04-15T17:20:49.426Z,40.14
2018-04-15T17:23:18.775Z,40.65
2018-04-15T17:25:48.844Z,40.63
2018-04-15T17:28:18.156Z,40.44
2018-04-15T17:30:47.549Z,40.98
2018-04-15T17:33:16.871Z,41.25
2018-04-15T17:35:46.209Z,41.36
2018-04-15T17:38:16.283Z,41.62
2018-04-15T17:40:45.582Z,41.75
2018-04-15T17:43:14.946Z,41.86
2018-04-15T17:45:45.221Z,41.68
2018-04-15T17:48:14.528Z,41.95
2018-04-15T17:50:43.964Z,41.89
2018-04-15T17:53:14.041Z,42.54
2018-04-15T17:55:43.381Z,42.30
2018-04-15T17:58:13.635Z,42.60
2018-04-15T18:00:42.940Z,42.45
2018-04-15T18:03:12.252Z,42.77
2018-04-15T18:05:41.583Z,43.05
2018-04-15T18:08:10.882Z,43.18
2018-04-15T18:10:40.181Z,43.23
2018-04-15T18:13:09.514Z,43.57
2018-04-15T18:15:39.608Z,43.69
2018-04-15T18:18:08.950Z,43.92
2018-04-15T18:20:38.262Z,44.04
2018-04-15T18:23:07.614Z,44.26
2018-04-15T18:25:36.947Z,44.25
2018-04-15T18:28:06.301Z,44.41
2018-04-15T18:30:35.627Z,44.54
2018-04-15T18:33:04.963Z,44.22
2018-04-15T18:35:35.042Z,44.74
2018-04-15T18:38:04.382Z,44.39
2018-04-15T18:40:33.691Z,44.75
2018-04-15T18:43:03.780Z,45.04
2018-04-15T18:45:33.103Z,45.31
2018-04-15T18:48:02.423Z,45.73
2018-04-15T18:50:32.502Z,45.78
2018-04-15T18:53:01.826Z,45.95
2018-04-15T18:55:31.132Z,46.23
2018-04-15T18:58:01.227Z,46.42
2018-04-15T19:00:30.533Z,46.57
2018-04-15T19:02:59.854Z,46.94
2018-04-15T19:05:29.287Z,47.25
2018-04-15T19:07:58.625Z,47.34
2018-04-15T19:10:27.971Z,47.34
2018-04-15T19:12:58.058Z,47.80
2018-04-15T19:15:27.401Z,48.09
2018-04-15T19:17:57.501Z,48.94
2018-04-15T19:20:26.831Z,49.07
2018-04-15T19:22:56.914Z,49.11
2018-04-15T19:25:28.373Z,49.48
2018-04-15T19:27:57.695Z,49.48
2018-04-15T19:30:27.803Z,49.26
2018-04-15T19:32:57.225Z,49.77
2018-04-15T19:35:26.533Z,49.99
2018-04-15T19:37:57.446Z,50.57
2018-04-15T19:40:27.656Z,50.78
2018-04-15T19:42:57.008Z,50.89
2018-04-15T19:45:27.154Z,51.14
2018-04-15T19:47:56.437Z,50.87
2018-04-15T19:50:26.631Z,51.35
2018-04-15T19:52:56.057Z,51.61
2018-04-15T19:55:26.124Z,52.01
2018-04-15T19:57:56.155Z,52.59
2018-04-15T20:00:25.460Z,52.38
2018-04-15T20:02:54.835Z,52.44
2018-04-15T20:05:24.880Z,52.50
2018-04-15T20:07:54.206Z,52.61
2018-04-15T20:10:23.575Z,52.75
2018-04-15T20:12:52.875Z,52.93
2018-04-15T20:15:22.179Z,52.99
2018-04-15T20:17:51.578Z,53.04
2018-04-15T20:20:20.941Z,53.04
2018-04-15T20:22:50.837Z,53.19
2018-04-15T20:25:20.347Z,52.82
2018-04-15T20:27:49.659Z,52.85
2018-04-15T20:30:19.722Z,52.86
2018-04-15T20:32:49.725Z,53.25
2018-04-15T20:35:19.050Z,53.36
2018-04-15T20:37:48.397Z,53.47
2018-04-15T20:40:18.483Z,53.54
2018-04-15T20:42:47.775Z,53.39
2018-04-15T20:45:17.090Z,53.47
2018-04-15T20:47:46.430Z,53.72
2018-04-15T20:50:15.710Z,53.90
2018-04-15T20:52:45.020Z,53.95
2018-04-15T20:55:14.366Z,53.77
2018-04-15T20:57:43.639Z,53.97
2018-04-15T21:00:13.700Z,54.50
2018-04-15T21:02:43.784Z,54.26
2018-04-15T21:05:13.100Z,54.09
2018-04-15T21:07:42.433Z,54.37
2018-04-15T21:10:11.748Z,54.65
2018-04-15T21:12:41.052Z,54.18
2018-04-15T21:15:10.369Z,54.80
2018-04-15T21:17:39.701Z,54.51
2018-04-15T21:20:09.776Z,54.72
2018-04-15T21:22:39.100Z,54.64
2018-04-15T21:25:08.411Z,54.97
2018-04-15T21:27:38.509Z,55.47
2018-04-15T21:30:07.802Z,55.74
2018-04-15T21:32:37.111Z,55.89
2018-04-15T21:35:06.632Z,55.86
2018-04-15T21:37:35.940Z,55.92
2018-04-15T21:40:05.443Z,56.03
2018-04-15T21:42:34.774Z,56.47
2018-04-15T21:45:05.042Z,57.22
2018-04-15T21:47:34.342Z,57.15
2018-04-15T21:50:03.686Z,57.16
2018-04-15T21:52:33.742Z,57.08
2018-04-15T21:55:03.043Z,57.09
2018-04-15T21:57:32.393Z,57.08
2018-04-15T22:00:01.717Z,57.59
2018-04-15T22:02:31.773Z,57.50
2018-04-15T22:05:01.105Z,57.58
2018-04-15T22:07:30.420Z,57.46
2018-04-15T22:09:59.735Z,57.43
2018-04-15T22:12:29.036Z,57.35
2018-04-15T22:14:59.098Z,57.59
2018-04-15T22:17:28.427Z,58.08
2018-04-15T22:19:57.732Z,57.98
2018-04-15T22:22:27.034Z,57.87
2018-04-15T22:24:56.374Z,57.82
2018-04-15T22:27:26.482Z,57.72
2018-04-15T22:29:55.789Z,57.68
2018-04-15T22:32:25.888Z,57.60
2018-04-15T22:34:55.175Z,57.79
2018-04-15T22:37:24.493Z,58.43
2018-04-15T22:39:53.833Z,59.03
2018-04-15T22:42:23.920Z,59.03
2018-04-15T22:44:53.221Z,59.03
2018-04-15T22:47:22.539Z,59.22
2018-04-15T22:49:57.998Z,59.37
2018-04-15T22:52:28.076Z,59.92
2018-04-15T22:54:57.395Z,59.93
2018-04-15T22:57:26.694Z,60.13
2018-04-15T22:59:55.978Z,60.26
2018-04-15T23:02:26.093Z,60.30
2018-04-15T23:04:55.405Z,60.42
2018-04-15T23:07:24.742Z,60.70
2018-04-15T23:09:54.051Z,61.39
2018-04-15T23:12:24.124Z,61.64
2018-04-15T23:14:53.417Z,61.47
2018-04-15T23:17:22.741Z,61.61
2018-04-15T23:19:52.042Z,61.59
2018-04-15T23:22:21.343Z,61.64
2018-04-15T23:24:50.674Z,61.91
2018-04-15T23:27:19.996Z,62.31
2018-04-15T23:29:50.267Z,62.77
2018-04-15T23:32:19.595Z,62.92
2018-04-15T23:34:48.906Z,62.92
2018-04-15T23:37:18.225Z,62.89
2018-04-15T23:39:48.299Z,63.11
2018-04-15T23:42:17.701Z,63.39
2018-04-15T23:44:47.009Z,63.70
2018-04-15T23:47:16.306Z,63.79
2018-04-15T23:49:45.618Z,63.66
2018-04-15T23:52:14.942Z,63.35
2018-04-15T23:54:44.268Z,63.49
2018-04-15T23:57:14.341Z,63.70
2018-04-15T23:59:43.846Z,63.83
